Latest Weather Observations for Wyndham Airport

IDW60801

Issued at 7:05 pm WST Monday 1 September 2014 (issued every 30 minutes, with the page automatically refreshed every 10 minutes)

About weather observations | Map of weather stations | Latest weather observations for WA | Other Formats
Station Details ID: 001006 Name: WYNDHAM AERO Lat: -15.51 Lon: 128.15 Height: 3.8 m
Data from the previous 72 hours. | See also: Recent months for locations in Western Australia
Date/Time
WST
Temp
°C
App
Temp
°C
Dew
Point
Rel
Hum
%
Delta-T
°C
Wind Press
QNH
hPa
Press
MSL
hPa
Rain
since 9 am
mm
Dir
 
Spd
km/h
Gust
km/h
Spd
kts
Gust
kts
01/07:00pm 25.1 23.5 2.5 23 10.9 NW 0 6 0 3 1013.3 1013.3 0.0
01/06:30pm 26.6 24.9 1.8 20 11.9 SSE 0 0 0 0 1013.0 1013.0 0.0
01/06:00pm 28.8 24.3 2.1 18 13.1 N 15 20 8 11 1012.4 1012.4 0.0
01/05:30pm 29.6 24.7 2.0 17 13.6 N 17 22 9 12 1012.0 1012.0 0.0
01/05:00pm 31.0 26.4 3.9 18 13.9 N 17 24 9 13 1011.6 1011.6 0.0
01/04:30pm 32.8 28.2 3.7 16 15.1 N 17 22 9 12 1011.2 1011.2 0.0
01/04:00pm 35.1 30.1 -4.1 8 18.1 E 13 24 7 13 1010.9 1010.9 0.0
01/03:30pm 35.1 29.6 -5.8 7 18.4 E 15 26 8 14 1010.8 1010.8 0.0
01/03:00pm 35.7 30.6 -5.4 7 18.7 E 13 20 7 11 1010.9 1010.9 0.0
01/02:30pm 34.9 28.6 -6.0 7 18.3 E 19 28 10 15 1011.2 1011.2 0.0
01/02:00pm 35.4 29.7 -3.8 8 18.3 ESE 17 33 9 18 1011.5 1011.5 0.0
01/01:30pm 34.8 29.8 -4.3 8 18.0 ESE 13 22 7 12 1011.8 1011.8 0.0
01/01:00pm 35.1 29.7 -4.1 8 18.1 ESE 15 28 8 15 1012.3 1012.3 0.0
01/12:30pm 35.1 30.5 -4.1 8 18.1 E 11 15 6 8 1013.0 1013.0 0.0
01/12:00pm 34.1 28.7 -4.8 8 17.6 NNE 15 20 8 11 1013.4 1013.4 0.0
01/11:30am 34.2 28.4 -4.7 8 17.7 ESE 17 28 9 15 1014.0 1014.0 0.0
01/11:00am 33.8 28.1 -3.5 9 17.2 ESE 17 26 9 14 1014.7 1014.7 0.0
01/10:30am 32.5 26.2 -4.4 9 16.6 E 20 28 11 15 1015.3 1015.3 0.0
01/10:00am 31.3 26.3 -3.9 10 15.8 E 13 20 7 11 1015.7 1015.7 0.0
01/09:30am 29.6 25.5 -2.8 12 14.7 SE 9 15 5 8 1016.1 1016.1 0.0
01/09:00am 27.3 24.1 0.9 18 12.5 WSW 7 11 4 6 1016.5 1016.5 0.0
01/08:30am 25.3 21.9 2.1 22 11.1 SW 9 11 5 6 1016.5 1016.5 0.0
01/08:00am 23.9 20.3 2.7 25 10.2 SSW 11 13 6 7 1016.4 1016.4 0.0
01/07:30am 21.8 18.5 2.5 28 9.1 SW 9 11 5 6 1016.2 1016.2 0.0
01/07:00am 20.6 17.4 1.0 27 8.9 WNW 7 9 4 5 1015.9 1015.9 0.0
01/06:30am 17.6 14.0 0.7 32 7.4 WNW 9 9 5 5 1015.4 1015.4 0.0
01/06:00am 14.2 12.2 2.1 44 5.3 NW 2 7 1 4 1015.1 1015.1 0.0
01/05:30am 13.8 11.2 3.3 49 4.7 W 6 7 3 4 1014.6 1014.6 0.0
01/05:00am 13.0 10.1 2.5 49 4.6 WSW 7 9 4 5 1014.3 1014.3 0.0
01/04:30am 12.7 9.6 1.4 46 4.8 W 7 9 4 5 1013.8 1013.8 0.0
01/04:00am 14.1 11.4 2.7 46 5.1 W 6 7 3 4 1013.5 1013.5 0.0
01/03:30am 13.7 10.2 -1.1 36 6.0 W 7 9 4 5 1013.3 1013.3 0.0
01/03:00am 15.0 12.0 2.2 42 5.7 NW 7 9 4 5 1012.8 1012.8 0.0
01/02:30am 14.2 11.2 1.8 43 5.4 W 7 9 4 5 1012.7 1012.7 0.0
01/02:00am 14.8 12.1 2.4 43 5.5 WSW 6 6 3 3 1012.9 1012.9 0.0
01/01:30am 14.5 11.8 2.4 44 5.4 WNW 6 7 3 4 1013.0 1013.0 0.0
01/01:00am 14.8 11.8 1.0 39 5.9 SW 6 7 3 4 1013.0 1013.0 0.0
01/12:30am 16.3 13.0 0.4 34 6.8 SSW 7 9 4 5 1012.9 1012.9 0.0
01/12:00am 14.7 12.3 -0.6 35 6.4 E 2 6 1 3 1012.9 1012.9 0.0
 
Date/Time
WST
Temp
°C
App
Temp
°C
Dew
Point
Rel
Hum
%
Delta-T
°C
Wind Press
QNH
hPa
Press
MSL
hPa
Rain
since 9 am
mm
Dir
 
Spd
km/h
Gust
km/h
Spd
kts
Gust
kts
31/11:30pm 14.9 12.2 0.0 36 6.3 E 4 9 2 5 1012.9 1012.9 0.0
31/11:00pm 15.3 12.2 0.3 36 6.4 E 6 7 3 4 1012.9 1012.9 0.0
31/10:30pm 17.1 15.4 1.9 36 6.8 CALM 0 7 0 4 1013.1 1013.1 0.0
31/10:00pm 17.0 14.8 -1.6 28 7.7 CALM 0 0 0 0 1013.0 1013.0 0.0
31/09:30pm 18.7 15.6 0.3 29 8.1 E 6 7 3 4 1013.0 1013.0 0.0
31/09:00pm 19.1 15.6 1.1 30 8.1 E 9 11 5 6 1013.2 1013.2 0.0
31/08:30pm 19.8 17.6 -1.9 23 9.2 CALM 0 0 0 0 1013.3 1013.3 0.0
31/08:00pm 22.7 20.6 -0.7 21 10.4 CALM 0 0 0 0 1013.1 1013.1 0.0
31/07:30pm 21.7 18.7 -1.6 21 10.1 NW 4 7 2 4 1013.0 1013.0 0.0
31/07:00pm 25.4 22.1 -1.4 17 12.0 S 6 7 3 4 1012.5 1012.5 0.0
31/06:30pm 27.4 22.5 -0.6 16 13.0 N 15 19 8 10 1012.1 1012.1 0.0
31/06:00pm 27.7 22.8 -0.4 16 13.1 N 15 20 8 11 1011.7 1011.7 0.0
31/05:30pm 28.2 24.8 1.7 18 12.9 N 9 13 5 7 1011.5 1011.5 0.0
31/05:00pm 31.4 26.1 -6.8 8 16.4 E 13 19 7 10 1011.1 1011.1 0.0
31/04:30pm 32.8 28.4 -5.7 8 17.0 ENE 9 15 5 8 1011.0 1011.0 0.0
31/04:00pm 33.3 28.9 -5.4 8 17.3 E 9 13 5 7 1010.8 1010.8 0.0
31/03:30pm 34.0 28.9 -4.9 8 17.6 ESE 13 24 7 13 1010.7 1010.7 0.0
31/03:00pm 34.3 29.3 -4.6 8 17.7 E 13 24 7 13 1010.7 1010.7 0.0
31/02:30pm 33.6 28.9 -5.2 8 17.4 NE 11 19 6 10 1011.0 1011.0 0.0
31/02:00pm 33.7 27.9 -5.1 8 17.5 ESE 17 26 9 14 1011.4 1011.4 0.0
31/01:30pm 33.4 27.7 -7.0 7 17.6 ESE 15 24 8 13 1011.9 1011.9 0.0
31/01:00pm 33.0 28.1 -7.3 7 17.4 ENE 11 20 6 11 1012.3 1012.3 0.0
31/12:30pm 33.5 28.8 -5.2 8 17.4 ENE 11 17 6 9 1012.5 1012.5 0.0
31/12:00pm 34.2 29.2 -4.7 8 17.7 SE 13 22 7 12 1013.0 1013.0 0.0
31/11:30am 32.8 27.3 -5.7 8 17.0 E 15 28 8 15 1013.5 1013.5 0.0
31/11:00am 32.9 26.0 -5.7 8 17.1 ENE 22 28 12 15 1014.0 1014.0 0.0
31/10:30am 32.4 25.9 -6.0 8 16.8 E 20 30 11 16 1014.5 1014.5 0.0
31/10:00am 32.1 23.7 -6.3 8 16.7 E 30 35 16 19 1015.1 1015.1 0.0
31/09:30am 31.7 24.2 -5.0 9 16.3 ENE 26 33 14 18 1015.2 1015.2 0.0
31/09:00am 31.1 22.7 -5.5 9 16.0 E 30 39 16 21 1015.5 1015.5 0.0
31/08:30am 29.7 23.6 -3.9 11 14.9 ESE 19 30 10 16 1015.6 1015.6 0.0
31/08:00am 25.6 22.3 0.3 19 11.7 SW 7 9 4 5 1015.6 1015.6 0.0
31/07:30am 22.8 19.8 0.6 23 10.1 SW 6 9 3 5 1015.6 1015.6 0.0
31/07:00am 21.1 18.6 -0.8 23 9.6 W 2 6 1 3 1015.4 1015.4 0.0
31/06:30am 17.8 14.5 -0.9 28 7.9 SW 6 7 3 4 1015.2 1015.2 0.0
31/06:00am 13.3 9.8 -1.4 36 5.9 SSW 7 11 4 6 1015.0 1015.0 0.0
31/05:30am 11.8 9.3 -3.9 33 5.9 CALM 0 0 0 0 1014.7 1014.7 0.0
31/05:00am 12.2 10.0 -1.7 38 5.5 CALM 0 0 0 0 1014.2 1014.2 0.0
31/04:30am 12.6 10.0 -1.7 37 5.7 W 2 7 1 4 1013.9 1013.9 0.0
31/04:00am 13.0 10.8 -1.3 37 5.7 CALM 0 0 0 0 1013.8 1013.8 0.0
31/03:30am 13.4 11.2 -1.7 35 6.0 CALM 0 0 0 0 1013.6 1013.6 0.0
31/03:00am 12.7 10.6 -0.5 40 5.4 CALM 0 0 0 0 1013.5 1013.5 0.0
31/02:30am 12.7 10.4 -2.0 36 5.8 CALM 0 0 0 0 1013.3 1013.3 0.0
31/02:00am 13.5 11.2 -2.0 34 6.2 CALM 0 0 0 0 1013.3 1013.3 0.0
31/01:30am 14.9 12.6 -2.5 30 6.9 CALM 0 0 0 0 1013.2 1013.2 0.0
31/01:00am 15.4 12.1 -1.6 31 7.0 WNW 6 7 3 4 1013.3 1013.3 0.0
31/12:30am 15.2 11.5 -2.7 29 7.1 W 7 9 4 5 1013.5 1013.5 0.0
31/12:00am 15.4 13.1 -2.5 29 7.2 CALM 0 0 0 0 1013.6 1013.6 0.0
 
Date/Time
WST
Temp
°C
App
Temp
°C
Dew
Point
Rel
Hum
%
Delta-T
°C
Wind Press
QNH
hPa
Press
MSL
hPa
Rain
since 9 am
mm
Dir
 
Spd
km/h
Gust
km/h
Spd
kts
Gust
kts
30/11:30pm 14.8 11.3 -2.6 30 6.9 ESE 6 6 3 3 1013.6 1013.6 0.0
30/11:00pm 15.6 13.4 -1.9 30 7.1 CALM 0 0 0 0 1013.6 1013.6 0.0
30/10:30pm 16.8 14.4 -2.8 26 7.9 CALM 0 0 0 0 1013.8 1013.8 0.0
30/10:00pm 18.0 15.3 -2.8 24 8.5 W 2 7 1 4 1013.9 1013.9 0.0
30/09:30pm 18.7 16.2 -4.0 21 9.1 CALM 0 0 0 0 1013.9 1013.9 0.0
30/09:00pm 19.5 16.2 -4.0 20 9.5 NNW 4 6 2 3 1014.0 1014.0 0.0
30/08:30pm 20.3 16.5 -5.5 17 10.2 ENE 6 9 3 5 1013.9 1013.9 0.0
30/08:00pm 23.7 19.1 -4.4 15 11.8 E 11 13 6 7 1013.8 1013.8 0.0
30/07:30pm 23.9 19.3 -4.3 15 11.8 E 11 13 6 7 1013.7 1013.7 0.0
30/07:00pm 23.7 19.5 -3.6 16 11.6 E 9 11 5 6 1013.4 1013.4 0.0
30/06:30pm 24.3 19.6 -4.9 14 12.2 ESE 11 13 6 7 1013.1 1013.1 0.0
30/06:00pm 25.5 20.4 -4.9 13 12.8 ESE 13 15 7 8 1012.7 1012.7 0.0
30/05:30pm 27.8 22.9 -6.6 10 14.4 E 11 13 6 7 1012.3 1012.3 0.0
30/05:00pm 30.6 26.2 -5.8 9 15.8 E 9 13 5 7 1012.1 1012.1 0.0
30/04:30pm 32.0 25.7 -6.3 8 16.7 E 19 22 10 12 1011.9 1011.9 0.0
30/04:00pm 32.5 27.3 -6.0 8 16.9 E 13 19 7 10 1011.8 1011.8 0.0
30/03:30pm 32.8 26.5 -5.7 8 17.0 ESE 19 32 10 17 1011.7 1011.7 0.0
30/03:00pm 33.2 26.9 -5.5 8 17.2 E 19 28 10 15 1011.7 1011.7 0.0
30/02:30pm 33.2 26.7 -5.5 8 17.2 ESE 20 32 11 17 1011.8 1011.8 0.0
30/02:00pm 33.4 27.5 -5.3 8 17.3 SE 17 28 9 15 1012.0 1012.0 0.0
30/01:30pm 33.4 27.9 -5.3 8 17.3 ESE 15 26 8 14 1012.3 1012.3 0.0
30/01:00pm 32.7 25.8 -5.8 8 17.0 ESE 22 30 12 16 1013.0 1013.0 0.0
30/12:30pm 32.5 25.2 -6.0 8 16.9 ESE 24 39 13 21 1013.4 1013.4 0.0
30/12:00pm 33.0 25.4 -5.6 8 17.1 SE 26 41 14 22 1013.9 1013.9 0.0
30/11:30am 32.3 24.6 -6.1 8 16.8 E 26 35 14 19 1014.5 1014.5 0.0
30/11:02am 32.1 24.0 -6.3 8 16.7 ESE 28 46 15 25 1014.9 1014.9 0.0
30/11:00am 32.5 24.1 -6.0 8 16.9 ESE 30 46 16 25 1014.9 1014.9 0.0
30/10:53am 32.4 24.5 -4.5 9 16.6 ESE 28 46 15 25 1015.0 1015.0 0.0
30/10:30am 32.2 24.3 -4.6 9 16.5 E 28 41 15 22 1015.5 1015.5 0.0
30/10:00am 31.5 22.2 -5.2 9 16.2 E 35 46 19 25 1016.1 1016.1 0.0
30/09:30am 30.8 22.6 -4.3 10 15.6 E 30 41 16 22 1016.7 1016.7 0.0
30/09:00am 30.4 22.1 -4.6 10 15.4 E 30 43 16 23 1016.9 1016.9 0.0
30/08:57am 30.2 22.3 -4.8 10 15.4 E 28 41 15 22 1016.9 1016.9 0.0
30/08:30am 28.3 24.9 -1.7 14 13.7 SSE 6 15 3 8 1017.1 1017.1 0.0
30/08:00am 24.3 21.0 -1.5 18 11.4 SSW 6 7 3 4 1017.1 1017.1 0.0
30/07:30am 21.8 19.3 -0.8 22 10.0 SW 2 7 1 4 1017.0 1017.0 0.0
30/07:00am 19.7 16.8 -1.4 24 9.0 NW 4 6 2 3 1016.9 1016.9 0.0
30/06:30am 17.7 15.3 -0.5 29 7.8 NW 2 7 1 4 1016.4 1016.4 0.0
30/06:00am 13.2 11.2 -0.4 39 5.6 CALM 0 4 0 2 1016.0 1016.0 0.0
30/05:30am 11.5 9.1 -0.6 43 4.9 S 2 7 1 4 1015.5 1015.5 0.0
30/05:00am 10.9 8.1 -3.6 36 5.4 S 2 7 1 4 1015.4 1015.4 0.0
30/04:30am 11.8 9.6 -1.7 39 5.3 CALM 0 0 0 0 1015.2 1015.2 0.0
30/04:00am 14.9 12.9 -0.4 35 6.4 CALM 0 0 0 0 1014.9 1014.9 0.0
30/03:30am 13.6 10.3 -1.2 36 6.0 SSW 6 9 3 5 1014.6 1014.6 0.0
30/03:00am 13.2 10.9 -2.7 33 6.2 CALM 0 0 0 0 1014.6 1014.6 0.0
30/02:30am 15.5 12.1 -2.0 30 7.1 NNW 6 9 3 5 1014.7 1014.7 0.0
30/02:00am 16.1 13.0 -2.9 27 7.6 WNW 4 7 2 4 1015.0 1015.0 0.0
30/01:30am 16.5 14.3 -1.6 29 7.5 CALM 0 6 0 3 1015.1 1015.1 0.0
30/01:00am 15.6 12.2 -2.3 29 7.2 WNW 6 7 3 4 1015.0 1015.0 0.0
30/12:30am 14.6 11.8 -3.2 29 7.0 W 2 7 1 4 1015.0 1015.0 0.0
30/12:00am 15.3 11.8 -2.6 29 7.2 NNW 6 7 3 4 1015.0 1015.0 0.0
 
Date/Time
WST
Temp
°C
App
Temp
°C
Dew
Point
Rel
Hum
%
Delta-T
°C
Wind Press
QNH
hPa
Press
MSL
hPa
Rain
since 9 am
mm
Dir
 
Spd
km/h
Gust
km/h
Spd
kts
Gust
kts
29/11:30pm 15.2 11.7 -3.2 28 7.3 NW 6 7 3 4 1015.1 1015.1 0.0
29/11:00pm 15.2 11.7 -2.7 29 7.1 N 6 7 3 4 1015.1 1015.1 0.0
29/10:30pm 16.5 14.0 -3.6 25 8.0 CALM 0 6 0 3 1015.2 1015.2 0.0
29/10:00pm 16.2 13.5 -2.8 27 7.6 SE 2 11 1 6 1015.2 1015.2 0.0
29/09:30pm 18.1 15.7 -2.8 24 8.6 CALM 0 9 0 5 1015.2 1015.2 0.0
29/09:00pm 20.7 17.0 -3.0 20 9.9 NNW 7 9 4 5 1015.2 1015.2 0.0
29/08:30pm 20.1 15.7 -2.3 22 9.4 WNW 11 15 6 8 1015.2 1015.2 0.0
29/08:00pm 20.7 16.9 -5.2 17 10.4 WNW 6 11 3 6 1014.8 1014.8 0.0
29/07:30pm 22.5 17.4 -5.4 15 11.3 E 13 15 7 8 1014.5 1014.5 0.0

Other Formats:

Comma delimited format used in spreadsheet applications
http://www.bom.gov.au/fwo/IDW60801/IDW60801.95214.axf

JavaScript Object Notation format (JSON) in row-major order
http://www.bom.gov.au/fwo/IDW60801/IDW60801.95214.json